Gans, PA (15439)

3:35 AM EST on December 05, 2016 (GMT -0500)
Fairchance/Cheat Lake | | Change Station

Elev 1080 ft 39.72 °N, 79.81 °W | Updated 39 seconds ago

Rain
Rain
45.1 °F
Feels Like 45 °F
N
3.0
Wind Variable Wind from WNW
Gusts 8.0 mph

Today
High -- | Low -- °F
--% Chance of Precip.
Yesterday
High -- | Low -- °F
Precip. -- in
Pressure 29.93 in
Visibility 10.0 miles
Clouds Overcast 1100 ft
Windchill 45 °F
Dew Point 42 °F
Humidity 90%
Rainfall 0.02 in
Snow Depth Not available.
7:25 AM 4:54 PM
Waxing Crescent, 29% visible
SPECI KMGW 050814Z AUTO 25008KT 200V290 10SM OVC011 08/05 A2993 RMK AO2 T00830050
Pressure 29.93 in
Visibility 10.0 miles
Clouds Overcast 1100 ft
Windchill 45 °F
Dew Point 42 °F
Humidity 90%
Rainfall 0.02 in
Snow Depth Not available.
7:25 AM 4:54 PM
Waxing Crescent, 29% visible
SPECI KMGW 050814Z AUTO 25008KT 200V290 10SM OVC011 08/05 A2993 RMK AO2 T00830050

10-Day Weather Forecast

Almanac

Astronomy

Dec. 05, 2016 Rise Set
Actual Time
Civil Twilight
Nautical Twilight
Astronomical Twilight
Moon
Length of Visible Light
Length of Day
Tomorrow will be .
, % of the Moon is Illuminated

Today's Extremes

State Highs State Lows

Community

WunderPhotos

Upload Photos

1,955,771 photos uploaded!

WunderBlog® & News

Nearby

Air Quality

  Air Quality AQ Index Pollutant
Not available.

Snow Depth

Station Depth Elevation

Earthquake Activity

City Distance Mag. Time & Date
Minimum magnitude displayed is 2.5.

Coastal Water Temperatures

Place Temperature

Stations

Nearby Weather Stations

Station Location Temp. Windchill Dew Point Humidity Wind Precip. Elev Updated Type
                   

Watches & Warnings

There are currently no watches in effect.